sensor_id;sensor_type;location;lat;lon;timestamp;pressure;altitude;pressure_sealevel;temperature;humidity
12182;BME280;6154;51.550;12.138;2023-03-01T00:01:19;102009.81;;;3.25;51.87
12182;BME280;6154;51.550;12.138;2023-03-01T00:03:48;102002.84;;;3.24;51.86
12182;BME280;6154;51.550;12.138;2023-03-01T00:06:17;101995.87;;;3.23;51.96
12182;BME280;6154;51.550;12.138;2023-03-01T00:08:45;101990.63;;;3.23;52.08
12182;BME280;6154;51.550;12.138;2023-03-01T00:11:17;101995.84;;;3.20;52.25
12182;BME280;6154;51.550;12.138;2023-03-01T00:13:47;101994.09;;;3.19;51.81
12182;BME280;6154;51.550;12.138;2023-03-01T00:16:21;101991.47;;;3.19;51.72
12182;BME280;6154;51.550;12.138;2023-03-01T00:18:49;101994.09;;;3.19;51.86
12182;BME280;6154;51.550;12.138;2023-03-01T00:21:21;101995.00;;;3.21;51.75
12182;BME280;6154;51.550;12.138;2023-03-01T00:23:50;101988.91;;;3.22;51.70
12182;BME280;6154;51.550;12.138;2023-03-01T00:26:21;101983.63;;;3.19;51.50
12182;BME280;6154;51.550;12.138;2023-03-01T00:28:50;101969.69;;;3.17;51.35
12182;BME280;6154;51.550;12.138;2023-03-01T00:31:20;101962.72;;;3.16;51.75
12182;BME280;6154;51.550;12.138;2023-03-01T00:33:52;101959.25;;;3.15;51.68
12182;BME280;6154;51.550;12.138;2023-03-01T00:36:20;101952.25;;;3.16;51.92
12182;BME280;6154;51.550;12.138;2023-03-01T00:38:49;101965.34;;;3.14;51.81
12182;BME280;6154;51.550;12.138;2023-03-01T00:41:19;101964.47;;;3.14;51.71
12182;BME280;6154;51.550;12.138;2023-03-01T00:43:49;101957.50;;;3.13;51.33
12182;BME280;6154;51.550;12.138;2023-03-01T00:46:20;101970.59;;;3.11;51.25
12182;BME280;6154;51.550;12.138;2023-03-01T00:48:48;101967.94;;;3.10;51.39
12182;BME280;6154;51.550;12.138;2023-03-01T00:51:19;101971.44;;;3.09;51.45
12182;BME280;6154;51.550;12.138;2023-03-01T00:53:50;101969.69;;;3.08;51.60
12182;BME280;6154;51.550;12.138;2023-03-01T00:56:20;101976.66;;;3.06;52.07
12182;BME280;6154;51.550;12.138;2023-03-01T00:58:49;101969.69;;;3.05;51.97
12182;BME280;6154;51.550;12.138;2023-03-01T01:01:20;101971.44;;;3.06;51.81
12182;BME280;6154;51.550;12.138;2023-03-01T01:03:51;101979.28;;;3.06;52.32
12182;BME280;6154;51.550;12.138;2023-03-01T01:06:21;101969.69;;;3.08;52.25
12182;BME280;6154;51.550;12.138;2023-03-01T01:08:50;101971.44;;;3.09;51.68
12182;BME280;6154;51.550;12.138;2023-03-01T01:11:21;101967.94;;;3.07;52.12
12182;BME280;6154;51.550;12.138;2023-03-01T01:13:49;101962.72;;;3.04;52.62
12182;BME280;6154;51.550;12.138;2023-03-01T01:16:19;101968.81;;;3.06;52.42
12182;BME280;6154;51.550;12.138;2023-03-01T01:18:48;101961.84;;;3.06;51.73
12182;BME280;6154;51.550;12.138;2023-03-01T01:21:19;101949.63;;;3.08;51.62
12182;BME280;6154;51.550;12.138;2023-03-01T01:23:48;101950.53;;;3.06;51.65
12182;BME280;6154;51.550;12.138;2023-03-01T01:26:19;101946.16;;;3.06;51.80
12182;BME280;6154;51.550;12.138;2023-03-01T01:28:50;101939.19;;;3.07;52.32
12182;BME280;6154;51.550;12.138;2023-03-01T01:31:19;101937.44;;;3.09;52.02
12182;BME280;6154;51.550;12.138;2023-03-01T01:33:50;101926.09;;;3.08;51.50
12182;BME280;6154;51.550;12.138;2023-03-01T01:36:19;101931.31;;;3.10;52.38
12182;BME280;6154;51.550;12.138;2023-03-01T01:38:48;101920.03;;;3.11;52.83
12182;BME280;6154;51.550;12.138;2023-03-01T01:41:16;101911.31;;;3.12;52.59
12182;BME280;6154;51.550;12.138;2023-03-01T01:43:47;101916.53;;;3.12;52.38
12182;BME280;6154;51.550;12.138;2023-03-01T01:46:22;101910.44;;;3.11;52.32
12182;BME280;6154;51.550;12.138;2023-03-01T01:48:54;101918.25;;;3.08;51.94
12182;BME280;6154;51.550;12.138;2023-03-01T01:51:28;101915.66;;;3.05;51.56
12182;BME280;6154;51.550;12.138;2023-03-01T01:54:10;101910.44;;;3.01;51.52
12182;BME280;6154;51.550;12.138;2023-03-01T01:56:42;101908.66;;;3.00;51.85
12182;BME280;6154;51.550;12.138;2023-03-01T01:59:13;101910.44;;;2.92;52.67
12182;BME280;6154;51.550;12.138;2023-03-01T02:01:44;101917.38;;;2.89;51.99
12182;BME280;6154;51.550;12.138;2023-03-01T02:04:12;101912.16;;;2.83;51.65
12182;BME280;6154;51.550;12.138;2023-03-01T02:06:44;101919.13;;;2.81;52.36
12182;BME280;6154;51.550;12.138;2023-03-01T02:09:18;101912.16;;;2.77;52.52
12182;BME280;6154;51.550;12.138;2023-03-01T02:11:48;101914.75;;;2.76;52.18
12182;BME280;6154;51.550;12.138;2023-03-01T02:14:18;101909.53;;;2.74;52.53
12182;BME280;6154;51.550;12.138;2023-03-01T02:16:48;101899.94;;;2.70;52.81
12182;BME280;6154;51.550;12.138;2023-03-01T02:19:26;101899.94;;;2.67;52.62
12182;BME280;6154;51.550;12.138;2023-03-01T02:22:04;101899.94;;;2.61;52.92
12182;BME280;6154;51.550;12.138;2023-03-01T02:24:40;101892.09;;;2.56;52.48
12182;BME280;6154;51.550;12.138;2023-03-01T02:27:19;101903.41;;;2.54;52.80
12182;BME280;6154;51.550;12.138;2023-03-01T02:29:53;101887.75;;;2.52;52.87
12182;BME280;6154;51.550;12.138;2023-03-01T02:32:23;101884.25;;;2.52;53.30
12182;BME280;6154;51.550;12.138;2023-03-01T02:34:52;101888.63;;;2.51;53.23
12182;BME280;6154;51.550;12.138;2023-03-01T02:37:21;101882.50;;;2.48;53.24
12182;BME280;6154;51.550;12.138;2023-03-01T02:39:56;101886.84;;;2.47;53.08
12182;BME280;6154;51.550;12.138;2023-03-01T02:42:28;101888.59;;;2.47;53.38
12182;BME280;6154;51.550;12.138;2023-03-01T02:45:00;101892.94;;;2.48;53.09
12182;BME280;6154;51.550;12.138;2023-03-01T02:47:28;101895.56;;;2.48;53.22
12182;BME280;6154;51.550;12.138;2023-03-01T02:49:56;101899.91;;;2.49;53.36
12182;BME280;6154;51.550;12.138;2023-03-01T02:52:41;101901.66;;;2.44;53.67
12182;BME280;6154;51.550;12.138;2023-03-01T02:55:14;101901.66;;;2.47;53.05
12182;BME280;6154;51.550;12.138;2023-03-01T02:57:45;101904.25;;;2.42;52.53
12182;BME280;6154;51.550;12.138;2023-03-01T03:00:21;101903.38;;;2.39;53.74
12182;BME280;6154;51.550;12.138;2023-03-01T03:02:54;101902.50;;;2.40;53.55
12182;BME280;6154;51.550;12.138;2023-03-01T03:05:25;101905.97;;;2.39;53.61
12182;BME280;6154;51.550;12.138;2023-03-01T03:07:56;101897.28;;;2.35;54.08
12182;BME280;6154;51.550;12.138;2023-03-01T03:10:28;101900.75;;;2.36;53.70
12182;BME280;6154;51.550;12.138;2023-03-01T03:12:58;101902.50;;;2.35;53.72
12182;BME280;6154;51.550;12.138;2023-03-01T03:15:28;101898.16;;;2.33;53.73
12182;BME280;6154;51.550;12.138;2023-03-01T03:17:58;101898.13;;;2.29;53.40
12182;BME280;6154;51.550;12.138;2023-03-01T03:20:28;101905.06;;;2.27;53.51
12182;BME280;6154;51.550;12.138;2023-03-01T03:22:57;101893.75;;;2.24;53.07
12182;BME280;6154;51.550;12.138;2023-03-01T03:25:27;101890.28;;;2.25;53.22
12182;BME280;6154;51.550;12.138;2023-03-01T03:27:56;101898.13;;;2.23;53.13
12182;BME280;6154;51.550;12.138;2023-03-01T03:30:26;101890.25;;;2.20;52.64
12182;BME280;6154;51.550;12.138;2023-03-01T03:32:57;101893.72;;;2.19;52.71
12182;BME280;6154;51.550;12.138;2023-03-01T03:35:28;101887.66;;;2.17;52.59
12182;BME280;6154;51.550;12.138;2023-03-01T03:37:58;101880.69;;;2.16;52.62
12182;BME280;6154;51.550;12.138;2023-03-01T03:40:31;101875.47;;;2.15;52.58
12182;BME280;6154;51.550;12.138;2023-03-01T03:43:00;101876.31;;;2.14;52.50
12182;BME280;6154;51.550;12.138;2023-03-01T03:45:28;101868.50;;;2.12;52.85
12182;BME280;6154;51.550;12.138;2023-03-01T03:48:02;101871.97;;;2.11;53.14
12182;BME280;6154;51.550;12.138;2023-03-01T03:50:32;101875.44;;;2.10;53.04
12182;BME280;6154;51.550;12.138;2023-03-01T03:53:01;101870.22;;;2.07;53.33
12182;BME280;6154;51.550;12.138;2023-03-01T03:55:31;101871.06;;;2.06;53.33
12182;BME280;6154;51.550;12.138;2023-03-01T03:58:05;101871.94;;;2.04;53.70
12182;BME280;6154;51.550;12.138;2023-03-01T04:00:35;101864.13;;;2.04;53.49
12182;BME280;6154;51.550;12.138;2023-03-01T04:03:06;101872.81;;;2.01;53.65
12182;BME280;6154;51.550;12.138;2023-03-01T04:05:35;101863.22;;;1.95;53.86
12182;BME280;6154;51.550;12.138;2023-03-01T04:08:05;101867.56;;;1.96;53.68
12182;BME280;6154;51.550;12.138;2023-03-01T04:10:40;101866.69;;;1.96;53.63
12182;BME280;6154;51.550;12.138;2023-03-01T04:13:11;101870.16;;;1.92;53.96
12182;BME280;6154;51.550;12.138;2023-03-01T04:15:40;101864.91;;;1.90;53.84
12182;BME280;6154;51.550;12.138;2023-03-01T04:18:12;101874.47;;;1.88;53.77
12182;BME280;6154;51.550;12.138;2023-03-01T04:20:42;101871.00;;;1.86;53.83
12182;BME280;6154;51.550;12.138;2023-03-01T04:23:13;101873.59;;;1.85;53.79
12182;BME280;6154;51.550;12.138;2023-03-01T05:34:28;101856.06;;;1.55;54.44
12182;BME280;6154;51.550;12.138;2023-03-01T05:36:57;101844.72;;;1.50;54.59
12182;BME280;6154;51.550;12.138;2023-03-01T05:39:27;101849.97;;;1.51;54.56
12182;BME280;6154;51.550;12.138;2023-03-01T05:41:58;101851.69;;;1.49;54.35
12182;BME280;6154;51.550;12.138;2023-03-01T05:44:28;101856.03;;;1.47;54.36
12182;BME280;6154;51.550;12.138;2023-03-01T05:46:57;101849.06;;;1.46;54.39
12182;BME280;6154;51.550;12.138;2023-03-01T05:49:26;101852.53;;;1.43;54.69
12182;BME280;6154;51.550;12.138;2023-03-01T05:51:54;101850.81;;;1.41;54.54
12182;BME280;6154;51.550;12.138;2023-03-01T05:54:23;101850.75;;;1.39;54.44
12182;BME280;6154;51.550;12.138;2023-03-01T05:56:51;101853.38;;;1.39;54.56
12182;BME280;6154;51.550;12.138;2023-03-01T05:59:19;101857.72;;;1.39;54.69
12182;BME280;6154;51.550;12.138;2023-03-01T06:01:47;101856.84;;;1.38;54.83
12182;BME280;6154;51.550;12.138;2023-03-01T06:04:17;101858.56;;;1.36;54.94
12182;BME280;6154;51.550;12.138;2023-03-01T06:06:46;101858.56;;;1.33;54.96
12182;BME280;6154;51.550;12.138;2023-03-01T06:09:14;101859.44;;;1.34;54.89
12182;BME280;6154;51.550;12.138;2023-03-01T06:11:42;101857.72;;;1.36;54.76
12182;BME280;6154;51.550;12.138;2023-03-01T06:14:10;101863.78;;;1.35;54.99
12182;BME280;6154;51.550;12.138;2023-03-01T06:16:41;101866.41;;;1.35;55.11
12182;BME280;6154;51.550;12.138;2023-03-01T06:19:12;101863.78;;;1.36;55.24
12182;BME280;6154;51.550;12.138;2023-03-01T06:21:40;101867.28;;;1.38;55.03
12182;BME280;6154;51.550;12.138;2023-03-01T06:24:10;101864.72;;;1.43;55.23
12182;BME280;6154;51.550;12.138;2023-03-01T06:26:38;101865.59;;;1.47;55.35
12182;BME280;6154;51.550;12.138;2023-03-01T06:29:06;101868.25;;;1.54;55.25
12182;BME280;6154;51.550;12.138;2023-03-01T06:31:35;101869.16;;;1.62;55.09
12182;BME280;6154;51.550;12.138;2023-03-01T06:34:04;101859.59;;;1.67;55.37
12182;BME280;6154;51.550;12.138;2023-03-01T06:36:32;101869.22;;;1.75;55.28
12182;BME280;6154;51.550;12.138;2023-03-01T06:39:00;101875.34;;;1.84;54.95
12182;BME280;6154;51.550;12.138;2023-03-01T06:41:29;101864.94;;;1.92;55.32
12182;BME280;6154;51.550;12.138;2023-03-01T06:43:57;101868.44;;;2.00;55.21
12182;BME280;6154;51.550;12.138;2023-03-01T06:46:26;101861.50;;;2.10;54.75
12182;BME280;6154;51.550;12.138;2023-03-01T06:48:54;101869.41;;;2.22;54.71
12182;BME280;6154;51.550;12.138;2023-03-01T06:51:22;101873.78;;;2.34;54.66
12182;BME280;6154;51.550;12.138;2023-03-01T06:53:51;101870.31;;;2.44;54.60
12182;BME280;6154;51.550;12.138;2023-03-01T06:56:19;101860.75;;;2.53;54.60
12182;BME280;6154;51.550;12.138;2023-03-01T06:58:48;101865.97;;;2.64;54.20
12182;BME280;6154;51.550;12.138;2023-03-01T07:01:16;101860.75;;;2.69;54.62
12182;BME280;6154;51.550;12.138;2023-03-01T07:03:44;101850.31;;;2.82;54.49
12182;BME280;6154;51.550;12.138;2023-03-01T07:06:13;101856.41;;;2.94;54.44
12182;BME280;6154;51.550;12.138;2023-03-01T07:08:41;101858.16;;;3.02;54.63
12182;BME280;6154;51.550;12.138;2023-03-01T07:11:09;101851.16;;;3.15;54.79
12182;BME280;6154;51.550;12.138;2023-03-01T07:13:38;101845.03;;;3.27;54.56
12182;BME280;6154;51.550;12.138;2023-03-01T07:16:08;101846.75;;;3.35;54.98
12182;BME280;6154;51.550;12.138;2023-03-01T07:18:36;101847.56;;;3.50;54.73
12182;BME280;6154;51.550;12.138;2023-03-01T07:21:05;101853.66;;;3.64;54.60
12182;BME280;6154;51.550;12.138;2023-03-01T07:23:34;101850.13;;;3.72;54.55
12182;BME280;6154;51.550;12.138;2023-03-01T07:26:02;101840.47;;;3.91;54.32
12182;BME280;6154;51.550;12.138;2023-03-01T07:28:30;101836.91;;;4.01;54.29
12182;BME280;6154;51.550;12.138;2023-03-01T07:31:03;101839.44;;;4.15;54.10
12182;BME280;6154;51.550;12.138;2023-03-01T07:33:32;101839.38;;;4.26;54.14
12182;BME280;6154;51.550;12.138;2023-03-01T07:36:02;101844.56;;;4.33;54.02
12182;BME280;6154;51.550;12.138;2023-03-01T07:38:31;101843.59;;;4.48;54.02
12182;BME280;6154;51.550;12.138;2023-03-01T07:41:00;101851.34;;;4.60;54.08
12182;BME280;6154;51.550;12.138;2023-03-01T07:43:29;101845.97;;;4.79;53.85
12182;BME280;6154;51.550;12.138;2023-03-01T07:45:58;101846.69;;;4.98;53.71
12182;BME280;6154;51.550;12.138;2023-03-01T07:48:27;101840.53;;;5.05;53.73
12182;BME280;6154;51.550;12.138;2023-03-01T07:50:59;101839.47;;;5.19;53.63
12182;BME280;6154;51.550;12.138;2023-03-01T07:53:28;101835.88;;;5.33;53.43
12182;BME280;6154;51.550;12.138;2023-03-01T07:56:01;101833.94;;;5.47;53.18
12182;BME280;6154;51.550;12.138;2023-03-01T07:58:30;101835.53;;;5.63;53.00
12182;BME280;6154;51.550;12.138;2023-03-01T08:01:01;101838.81;;;5.82;53.09
12182;BME280;6154;51.550;12.138;2023-03-01T08:03:29;101836.97;;;5.92;52.77
12182;BME280;6154;51.550;12.138;2023-03-01T08:06:00;101834.13;;;6.05;52.70
12182;BME280;6154;51.550;12.138;2023-03-01T08:08:29;101838.28;;;6.20;52.73
12182;BME280;6154;51.550;12.138;2023-03-01T08:10:58;101833.78;;;6.30;52.57
12182;BME280;6154;51.550;12.138;2023-03-01T08:13:26;101841.47;;;6.44;52.41
12182;BME280;6154;51.550;12.138;2023-03-01T08:16:00;101835.19;;;6.54;52.21
12182;BME280;6154;51.550;12.138;2023-03-01T08:18:29;101834.91;;;6.71;52.08
12182;BME280;6154;51.550;12.138;2023-03-01T08:21:02;101833.75;;;6.87;52.16
12182;BME280;6154;51.550;12.138;2023-03-01T08:23:31;101830.09;;;6.96;51.80
12182;BME280;6154;51.550;12.138;2023-03-01T08:26:05;101829.03;;;7.07;51.77
12182;BME280;6154;51.550;12.138;2023-03-01T08:28:34;101835.97;;;7.11;51.58
12182;BME280;6154;51.550;12.138;2023-03-01T08:31:03;101828.84;;;7.16;51.91
12182;BME280;6154;51.550;12.138;2023-03-01T08:33:31;101829.56;;;7.26;52.03
12182;BME280;6154;51.550;12.138;2023-03-01T08:36:05;101834.50;;;7.41;51.86
12182;BME280;6154;51.550;12.138;2023-03-01T08:38:34;101829.03;;;7.54;51.85
12182;BME280;6154;51.550;12.138;2023-03-01T08:41:03;101830.66;;;7.59;51.58
12182;BME280;6154;51.550;12.138;2023-03-01T08:43:31;101824.41;;;7.65;51.75
12182;BME280;6154;51.550;12.138;2023-03-01T08:45:59;101833.94;;;7.72;51.67
12182;BME280;6154;51.550;12.138;2023-03-01T08:48:28;101827.69;;;7.76;51.65
12182;BME280;6154;51.550;12.138;2023-03-01T08:50:56;101830.13;;;7.85;51.27
12182;BME280;6154;51.550;12.138;2023-03-01T08:53:26;101828.22;;;7.93;51.32
12182;BME280;6154;51.550;12.138;2023-03-01T08:55:54;101818.81;;;7.82;51.37
12182;BME280;6154;51.550;12.138;2023-03-01T08:58:22;101829.13;;;7.91;51.55
12182;BME280;6154;51.550;12.138;2023-03-01T09:00:51;101826.41;;;7.95;51.55
12182;BME280;6154;51.550;12.138;2023-03-01T09:03:19;101812.31;;;7.96;51.05
12182;BME280;6154;51.550;12.138;2023-03-01T09:05:47;101809.16;;;8.19;51.37
12182;BME280;6154;51.550;12.138;2023-03-01T09:08:17;101804.47;;;8.35;51.57
12182;BME280;6154;51.550;12.138;2023-03-01T09:10:47;101807.31;;;8.61;51.69
12182;BME280;6154;51.550;12.138;2023-03-01T09:13:15;101815.88;;;8.73;51.11
12182;BME280;6154;51.550;12.138;2023-03-01T09:15:44;101809.06;;;8.97;51.16
12182;BME280;6154;51.550;12.138;2023-03-01T09:18:12;101805.34;;;9.05;50.95
12182;BME280;6154;51.550;12.138;2023-03-01T09:20:40;101808.59;;;9.15;50.97
12182;BME280;6154;51.550;12.138;2023-03-01T09:23:08;101812.38;;;9.05;50.37
12182;BME280;6154;51.550;12.138;2023-03-01T09:25:39;101813.84;;;9.16;50.18
12182;BME280;6154;51.550;12.138;2023-03-01T09:28:08;101803.37;;;9.44;50.88
12182;BME280;6154;51.550;12.138;2023-03-01T09:30:57;101805.69;;;9.57;49.97
12182;BME280;6154;51.550;12.138;2023-03-01T09:33:26;101795.72;;;9.66;49.39
12182;BME280;6154;51.550;12.138;2023-03-01T09:35:58;101790.31;;;9.69;49.44
12182;BME280;6154;51.550;12.138;2023-03-01T09:38:27;101793.34;;;9.87;49.42
12182;BME280;6154;51.550;12.138;2023-03-01T09:40:56;101793.44;;;9.84;49.71
12182;BME280;6154;51.550;12.138;2023-03-01T09:43:31;101786.22;;;9.89;49.80
12182;BME280;6154;51.550;12.138;2023-03-01T09:46:04;101783.66;;;10.15;49.72
12182;BME280;6154;51.550;12.138;2023-03-01T09:48:39;101774.53;;;10.25;48.93
12182;BME280;6154;51.550;12.138;2023-03-01T09:51:14;101779.31;;;10.41;47.74
12182;BME280;6154;51.550;12.138;2023-03-01T09:53:45;101776.37;;;10.50;48.40
12182;BME280;6154;51.550;12.138;2023-03-01T09:56:19;101777.75;;;10.61;47.95
12182;BME280;6154;51.550;12.138;2023-03-01T09:58:53;101785.84;;;10.30;45.64
12182;BME280;6154;51.550;12.138;2023-03-01T10:01:30;101768.03;;;10.62;47.52
12182;BME280;6154;51.550;12.138;2023-03-01T10:04:23;101760.31;;;10.82;47.10
12182;BME280;6154;51.550;12.138;2023-03-01T10:07:02;101766.41;;;10.84;44.74
12182;BME280;6154;51.550;12.138;2023-03-01T10:09:33;101771.38;;;11.18;47.73
12182;BME280;6154;51.550;12.138;2023-03-01T10:12:07;101768.06;;;11.37;47.63
12182;BME280;6154;51.550;12.138;2023-03-01T10:14:43;101767.00;;;11.42;46.40
12182;BME280;6154;51.550;12.138;2023-03-01T10:17:23;101763.88;;;11.55;46.65
12182;BME280;6154;51.550;12.138;2023-03-01T10:19:52;101765.59;;;11.79;46.73
12182;BME280;6154;51.550;12.138;2023-03-01T10:22:23;101756.25;;;11.92;46.48
12182;BME280;6154;51.550;12.138;2023-03-01T10:24:54;101764.91;;;11.97;44.86
12182;BME280;6154;51.550;12.138;2023-03-01T10:27:24;101756.78;;;12.24;46.84
12182;BME280;6154;51.550;12.138;2023-03-01T10:30:11;101759.16;;;12.08;46.08
12182;BME280;6154;51.550;12.138;2023-03-01T10:32:43;101759.59;;;12.19;43.51
12182;BME280;6154;51.550;12.138;2023-03-01T10:35:17;101755.47;;;12.34;46.57
12182;BME280;6154;51.550;12.138;2023-03-01T10:37:57;101755.53;;;12.11;44.35
12182;BME280;6154;51.550;12.138;2023-03-01T10:40:25;101752.31;;;12.02;42.89
12182;BME280;6154;51.550;12.138;2023-03-01T10:42:57;101761.81;;;11.86;43.46
12182;BME280;6154;51.550;12.138;2023-03-01T10:45:36;101759.66;;;12.18;45.79
12182;BME280;6154;51.550;12.138;2023-03-01T10:48:09;101759.97;;;12.32;42.73
12182;BME280;6154;51.550;12.138;2023-03-01T10:50:40;101750.09;;;12.35;45.72
12182;BME280;6154;51.550;12.138;2023-03-01T10:53:22;101751.94;;;12.55;45.62
12182;BME280;6154;51.550;12.138;2023-03-01T10:55:58;101748.06;;;12.62;42.71
12182;BME280;6154;51.550;12.138;2023-03-01T10:58:28;101753.59;;;12.78;44.02
12182;BME280;6154;51.550;12.138;2023-03-01T11:01:00;101748.97;;;12.83;44.66
12182;BME280;6154;51.550;12.138;2023-03-01T11:03:30;101745.72;;;12.77;44.27
12182;BME280;6154;51.550;12.138;2023-03-01T11:06:03;101749.00;;;12.61;41.74
12182;BME280;6154;51.550;12.138;2023-03-01T11:08:37;101754.56;;;12.35;42.75
12182;BME280;6154;51.550;12.138;2023-03-01T11:11:22;101740.00;;;12.65;43.76
12182;BME280;6154;51.550;12.138;2023-03-01T11:13:58;101738.91;;;12.49;38.36
12182;BME280;6154;51.550;12.138;2023-03-01T11:16:32;101731.63;;;12.75;41.54
12182;BME280;6154;51.550;12.138;2023-03-01T11:19:15;101731.56;;;12.56;42.26
12182;BME280;6154;51.550;12.138;2023-03-01T11:21:50;101735.88;;;12.79;41.02
12182;BME280;6154;51.550;12.138;2023-03-01T11:24:29;101722.31;;;13.05;43.54
12182;BME280;6154;51.550;12.138;2023-03-01T11:27:00;101717.09;;;13.04;41.28
12182;BME280;6154;51.550;12.138;2023-03-01T11:29:34;101721.59;;;12.81;41.23
12182;BME280;6154;51.550;12.138;2023-03-01T11:32:16;101716.16;;;13.05;43.17
12182;BME280;6154;51.550;12.138;2023-03-01T11:34:47;101718.19;;;12.98;42.76
12182;BME280;6154;51.550;12.138;2023-03-01T11:37:23;101705.81;;;13.17;42.48
12182;BME280;6154;51.550;12.138;2023-03-01T11:40:02;101706.38;;;13.26;41.72
12182;BME280;6154;51.550;12.138;2023-03-01T11:42:43;101709.91;;;13.06;41.73
12182;BME280;6154;51.550;12.138;2023-03-01T11:45:14;101706.16;;;13.10;40.40
12182;BME280;6154;51.550;12.138;2023-03-01T11:47:56;101698.66;;;13.19;42.46
12182;BME280;6154;51.550;12.138;2023-03-01T11:50:31;101694.53;;;13.12;40.79
12182;BME280;6154;51.550;12.138;2023-03-01T11:53:15;101692.38;;;13.41;42.20
12182;BME280;6154;51.550;12.138;2023-03-01T11:56:05;101691.94;;;13.50;41.12
12182;BME280;6154;51.550;12.138;2023-03-01T11:58:51;101687.22;;;13.17;37.11
12182;BME280;6154;51.550;12.138;2023-03-01T12:01:32;101689.75;;;13.00;38.78
12182;BME280;6154;51.550;12.138;2023-03-01T12:04:32;101694.50;;;13.33;39.73
12182;BME280;6154;51.550;12.138;2023-03-01T12:07:07;101683.25;;;13.46;38.85
12182;BME280;6154;51.550;12.138;2023-03-01T12:09:52;101679.50;;;13.50;40.40
12182;BME280;6154;51.550;12.138;2023-03-01T12:12:29;101678.22;;;13.59;39.29
12182;BME280;6154;51.550;12.138;2023-03-01T12:18:05;101672.09;;;12.99;37.06
12182;BME280;6154;51.550;12.138;2023-03-01T12:20:41;101679.47;;;13.13;37.21
12182;BME280;6154;51.550;12.138;2023-03-01T12:23:29;101658.47;;;13.46;40.27
12182;BME280;6154;51.550;12.138;2023-03-01T12:26:06;101655.06;;;13.61;38.97
12182;BME280;6154;51.550;12.138;2023-03-01T12:28:48;101649.94;;;13.75;40.75
12182;BME280;6154;51.550;12.138;2023-03-01T12:31:35;101644.09;;;13.86;40.34
12182;BME280;6154;51.550;12.138;2023-03-01T12:34:20;101636.66;;;13.75;35.06
12182;BME280;6154;51.550;12.138;2023-03-01T12:37:07;101637.06;;;14.02;39.10
12182;BME280;6154;51.550;12.138;2023-03-01T12:39:48;101637.13;;;14.01;37.53
12182;BME280;6154;51.550;12.138;2023-03-01T12:42:24;101633.09;;;14.11;39.74
12182;BME280;6154;51.550;12.138;2023-03-01T12:45:12;101626.22;;;14.24;40.27
12182;BME280;6154;51.550;12.138;2023-03-01T12:47:58;101624.34;;;14.26;37.57
12182;BME280;6154;51.550;12.138;2023-03-01T12:50:38;101618.81;;;14.12;35.19
12182;BME280;6154;51.550;12.138;2023-03-01T12:53:20;101616.66;;;14.20;38.92
12182;BME280;6154;51.550;12.138;2023-03-01T12:55:50;101617.75;;;14.33;37.74
12182;BME280;6154;51.550;12.138;2023-03-01T12:58:24;101613.50;;;14.29;39.51
12182;BME280;6154;51.550;12.138;2023-03-01T13:01:19;101616.59;;;14.56;40.00
12182;BME280;6154;51.550;12.138;2023-03-01T13:04:17;101615.66;;;14.57;38.62
12182;BME280;6154;51.550;12.138;2023-03-01T13:06:58;101614.44;;;14.63;34.95
12182;BME280;6154;51.550;12.138;2023-03-01T13:09:36;101616.75;;;14.86;37.95
12182;BME280;6154;51.550;12.138;2023-03-01T13:15:25;101605.94;;;14.89;34.48
12182;BME280;6154;51.550;12.138;2023-03-01T13:17:55;101592.19;;;15.13;35.64
12182;BME280;6154;51.550;12.138;2023-03-01T13:20:27;101598.72;;;14.91;35.66
12182;BME280;6154;51.550;12.138;2023-03-01T13:23:07;101598.09;;;14.86;38.64
12182;BME280;6154;51.550;12.138;2023-03-01T13:28:51;101593.59;;;15.04;35.56
12182;BME280;6154;51.550;12.138;2023-03-01T13:34:43;101601.72;;;15.01;34.19
12182;BME280;6154;51.550;12.138;2023-03-01T13:37:20;101601.22;;;15.10;34.72
12182;BME280;6154;51.550;12.138;2023-03-01T13:39:49;101592.78;;;15.02;36.59
12182;BME280;6154;51.550;12.138;2023-03-01T13:42:34;101586.94;;;15.11;39.08
12182;BME280;6154;51.550;12.138;2023-03-01T13:45:17;101588.22;;;14.88;33.16
12182;BME280;6154;51.550;12.138;2023-03-01T13:47:49;101593.06;;;14.98;34.96
12182;BME280;6154;51.550;12.138;2023-03-01T13:50:21;101585.75;;;15.17;39.03
12182;BME280;6154;51.550;12.138;2023-03-01T13:52:54;101577.25;;;15.26;38.46
12182;BME280;6154;51.550;12.138;2023-03-01T13:55:32;101571.91;;;15.42;39.11
12182;BME280;6154;51.550;12.138;2023-03-01T13:58:15;101570.28;;;15.55;36.91
12182;BME280;6154;51.550;12.138;2023-03-01T14:00:45;101561.47;;;15.53;35.96
12182;BME280;6154;51.550;12.138;2023-03-01T14:03:15;101560.22;;;15.60;39.16
12182;BME280;6154;51.550;12.138;2023-03-01T14:05:58;101562.94;;;15.59;37.96
12182;BME280;6154;51.550;12.138;2023-03-01T14:08:40;101563.28;;;14.89;30.82
12182;BME280;6154;51.550;12.138;2023-03-01T14:14:39;101552.47;;;15.08;31.62
12182;BME280;6154;51.550;12.138;2023-03-01T14:17:27;101549.72;;;15.10;36.67
12182;BME280;6154;51.550;12.138;2023-03-01T14:20:03;101556.75;;;15.11;35.80
12182;BME280;6154;51.550;12.138;2023-03-01T14:22:36;101547.16;;;15.24;38.22
12182;BME280;6154;51.550;12.138;2023-03-01T14:25:15;101542.47;;;15.12;38.86
12182;BME280;6154;51.550;12.138;2023-03-01T14:27:44;101535.78;;;15.20;38.89
12182;BME280;6154;51.550;12.138;2023-03-01T14:30:20;101539.38;;;14.88;35.03
12182;BME280;6154;51.550;12.138;2023-03-01T14:32:55;101547.28;;;14.89;37.84
12182;BME280;6154;51.550;12.138;2023-03-01T14:35:26;101539.38;;;14.88;36.28
12182;BME280;6154;51.550;12.138;2023-03-01T14:37:54;101544.63;;;14.89;38.04
12182;BME280;6154;51.550;12.138;2023-03-01T14:40:26;101538.69;;;14.51;34.80
12182;BME280;6154;51.550;12.138;2023-03-01T14:42:56;101535.53;;;14.60;38.19
12182;BME280;6154;51.550;12.138;2023-03-01T14:45:28;101531.25;;;14.58;38.65
12182;BME280;6154;51.550;12.138;2023-03-01T14:48:01;101531.09;;;14.61;38.66
12182;BME280;6154;51.550;12.138;2023-03-01T14:50:31;101529.00;;;14.50;36.35